Time;durP1;ratioP1;P1;durP2;ratioP2;P2;SDS_P1;SDS_P2;PMS_P1;PMS_P2;Temp;Humidity;BMP_temperature;BMP_pressure;BME280_temperature;BME280_humidity;BME280_pressure;Samples;Min_cycle;Max_cycle;Signal;HPM_P1;HPM_P2
2023/12/22 00:01:15;;;;;;;12.37;3.70;;;5.40;99.90;;;;;;5055259;28;20665;-72
2023/12/22 00:03:41;;;;;;;9.17;4.20;;;5.40;99.90;;;;;;5056158;28;20645;-66
2023/12/22 00:06:07;;;;;;;21.97;5.27;;;5.40;99.90;;;;;;5057948;28;21036;-74
2023/12/22 00:08:33;;;;;;;16.13;4.43;;;5.40;99.90;;;;;;5053990;28;20435;-72
2023/12/22 00:10:59;;;;;;;11.37;4.20;;;5.30;99.90;;;;;;5055360;28;20591;-72
2023/12/22 00:13:24;;;;;;;21.00;5.73;;;5.30;99.90;;;;;;5055055;28;20228;-68
2023/12/22 00:15:50;;;;;;;18.30;4.37;;;5.30;99.90;;;;;;5053825;28;20813;-74
2023/12/22 00:18:16;;;;;;;24.30;5.13;;;5.30;99.90;;;;;;5053737;28;20241;-71
2023/12/22 00:20:41;;;;;;;17.53;8.90;;;5.30;99.90;;;;;;5055010;28;20180;-65
2023/12/22 00:23:07;;;;;;;13.53;6.17;;;5.30;99.90;;;;;;5054883;28;20282;-72
2023/12/22 00:25:33;;;;;;;14.50;4.00;;;5.20;99.90;;;;;;5053079;28;20187;-68
2023/12/22 00:28:02;;;;;;;17.57;3.57;;;5.20;99.90;;;;;;5053481;28;20204;-71
2023/12/22 00:30:27;;;;;;;13.30;3.97;;;5.20;99.90;;;;;;5053519;28;20173;-74
2023/12/22 00:32:53;;;;;;;12.53;4.43;;;5.10;99.90;;;;;;5054692;28;20490;-67
2023/12/22 00:35:18;;;;;;;10.83;3.03;;;5.10;99.90;;;;;;5053772;28;20176;-67
2023/12/22 00:37:44;;;;;;;13.07;3.50;;;5.10;99.90;;;;;;5054495;28;20193;-66
2023/12/22 00:40:10;;;;;;;19.13;4.43;;;5.00;99.90;;;;;;5054476;28;20210;-65
2023/12/22 00:42:36;;;;;;;13.63;3.50;;;5.00;99.90;;;;;;5053584;28;20208;-73
2023/12/22 00:45:01;;;;;;;16.63;5.47;;;5.00;99.90;;;;;;5053638;28;20499;-68
2023/12/22 00:47:28;;;;;;;15.17;3.70;;;5.00;99.90;;;;;;5054455;28;20180;-66
2023/12/22 00:49:53;;;;;;;21.70;4.43;;;5.00;99.90;;;;;;5052810;28;20221;-71
2023/12/22 00:52:19;;;;;;;6.70;3.07;;;5.00;99.90;;;;;;5054444;28;20406;-67
2023/12/22 00:54:45;;;;;;;18.53;4.37;;;5.00;99.90;;;;;;5053149;28;20176;-73
2023/12/22 00:57:11;;;;;;;12.87;4.40;;;4.90;99.90;;;;;;5053724;28;20263;-73
2023/12/22 00:59:37;;;;;;;10.13;4.00;;;4.90;99.90;;;;;;5054568;28;20169;-66
2023/12/22 01:02:02;;;;;;;13.80;4.50;;;5.00;99.90;;;;;;5054324;28;20434;-73
2023/12/22 01:04:28;;;;;;;4.97;2.63;;;5.00;99.90;;;;;;5053761;28;20178;-66
2023/12/22 01:06:54;;;;;;;16.70;4.57;;;5.00;99.90;;;;;;5052594;28;20649;-70
2023/12/22 01:09:19;;;;;;;6.77;3.00;;;5.00;99.90;;;;;;5052851;28;20637;-73
2023/12/22 01:11:46;;;;;;;7.30;3.03;;;5.00;99.90;;;;;;5054283;28;20169;-69
2023/12/22 01:14:13;;;;;;;12.23;4.23;;;5.00;99.90;;;;;;5052022;28;20692;-72
2023/12/22 01:16:39;;;;;;;12.03;4.87;;;5.00;99.90;;;;;;5053045;28;20405;-74
2023/12/22 01:19:05;;;;;;;12.90;3.80;;;5.00;99.90;;;;;;5054071;28;20444;-74
2023/12/22 01:21:31;;;;;;;16.73;4.57;;;4.90;99.90;;;;;;5053790;28;20463;-65
2023/12/22 01:23:58;;;;;;;10.40;4.57;;;4.90;99.90;;;;;;5054067;28;20483;-66
2023/12/22 01:26:24;;;;;;;11.80;3.20;;;5.00;99.90;;;;;;5052655;28;20524;-73
2023/12/22 01:28:50;;;;;;;15.33;3.77;;;5.00;99.90;;;;;;5052490;28;20480;-66
2023/12/22 01:31:16;;;;;;;11.43;3.20;;;5.00;99.90;;;;;;5053208;28;20455;-71
2023/12/22 01:33:42;;;;;;;12.17;3.33;;;5.00;99.90;;;;;;5053614;28;20178;-73
2023/12/22 01:36:08;;;;;;;8.83;3.27;;;5.00;99.90;;;;;;5052663;28;20239;-66
2023/12/22 01:38:33;;;;;;;11.43;3.27;;;5.00;99.90;;;;;;5053633;28;20425;-70
2023/12/22 01:40:59;;;;;;;13.67;3.67;;;5.00;99.90;;;;;;5053641;28;20165;-73
2023/12/22 01:43:25;;;;;;;14.33;5.10;;;5.00;99.90;;;;;;5052393;28;20218;-73
2023/12/22 01:45:55;;;;;;;15.20;4.23;;;5.00;99.90;;;;;;5050879;28;20208;-73
2023/12/22 01:48:23;;;;;;;18.77;3.87;;;5.00;99.90;;;;;;5053503;28;20191;-70
2023/12/22 01:50:53;;;;;;;23.60;5.30;;;5.00;99.90;;;;;;5052612;28;20440;-72
2023/12/22 01:53:22;;;;;;;9.80;3.73;;;5.00;99.90;;;;;;5053310;28;20770;-73
2023/12/22 01:55:50;;;;;;;18.00;4.67;;;4.90;99.90;;;;;;5052233;28;20505;-69
2023/12/22 01:58:15;;;;;;;11.87;5.27;;;4.90;99.90;;;;;;5052236;28;20429;-66
2023/12/22 02:00:42;;;;;;;14.50;4.17;;;4.90;99.90;;;;;;5035309;28;20461;-68
2023/12/22 02:03:08;;;;;;;15.17;3.63;;;4.90;99.90;;;;;;5040757;28;20294;-73
2023/12/22 02:05:34;;;;;;;23.40;4.87;;;4.90;99.90;;;;;;5051231;28;20498;-74
2023/12/22 02:08:00;;;;;;;17.93;4.63;;;4.90;99.90;;;;;;5052761;28;20536;-74
2023/12/22 02:10:26;;;;;;;22.03;4.43;;;5.00;99.90;;;;;;5052735;28;20942;-72
2023/12/22 02:12:52;;;;;;;12.37;4.50;;;5.00;99.90;;;;;;5051949;28;20424;-68
2023/12/22 02:15:18;;;;;;;9.47;4.00;;;5.00;99.90;;;;;;5051772;28;20503;-74
2023/12/22 02:17:58;;;;;;;10.23;3.57;;;5.10;99.90;;;;;;5052897;28;20482;-67
2023/12/22 02:20:24;;;;;;;12.33;4.23;;;5.10;99.90;;;;;;5052792;28;20762;-71
2023/12/22 02:22:53;;;;;;;13.20;4.33;;;5.10;99.90;;;;;;5052820;28;20461;-73
2023/12/22 02:25:18;;;;;;;10.13;3.47;;;5.10;99.90;;;;;;5051499;28;20423;-65
2023/12/22 02:27:56;;;;;;;9.40;3.47;;;5.10;1.00;;;;;;5052300;28;20474;-73
2023/12/22 02:30:40;;;;;;;15.60;4.20;;;5.10;1.00;;;;;;5052894;28;20159;-72
2023/12/22 02:33:08;;;;;;;17.77;3.80;;;4.90;1.00;;;;;;5052599;28;20452;-72
2023/12/22 02:35:38;;;;;;;9.00;3.00;;;4.90;1.00;;;;;;5050358;28;20498;-66
2023/12/22 02:38:05;;;;;;;10.97;3.70;;;4.60;1.00;;;;;;5052618;28;20437;-72
2023/12/22 02:40:31;;;;;;;8.73;3.63;;;4.40;1.00;;;;;;5052710;28;20406;-67
2023/12/22 02:42:57;;;;;;;10.33;4.17;;;4.20;1.00;;;;;;5052364;28;21008;-72
2023/12/22 02:45:23;;;;;;;3.10;2.23;;;4.10;17.30;;;;;;5049999;28;20449;-65
2023/12/22 02:47:48;;;;;;;9.40;2.60;;;4.00;72.70;;;;;;5052177;28;20458;-73
2023/12/22 02:50:16;;;;;;;4.43;2.37;;;3.80;99.90;;;;;;5052552;28;20213;-73
2023/12/22 02:52:42;;;;;;;6.33;2.57;;;3.80;99.90;;;;;;5051310;28;20171;-67
2023/12/22 02:55:08;;;;;;;3.37;2.33;;;3.60;99.90;;;;;;5051529;28;20421;-67
2023/12/22 02:57:34;;;;;;;3.67;2.40;;;3.70;99.90;;;;;;5051480;28;20195;-71
2023/12/22 02:59:59;;;;;;;5.33;2.43;;;3.60;99.90;;;;;;5052304;28;20504;-75
2023/12/22 03:02:25;;;;;;;5.30;2.30;;;3.60;99.90;;;;;;5051645;28;20804;-72
2023/12/22 03:04:51;;;;;;;4.60;2.60;;;3.60;99.90;;;;;;5051338;28;20179;-66
2023/12/22 03:07:17;;;;;;;2.90;2.03;;;3.50;99.90;;;;;;5052324;28;20186;-70
2023/12/22 03:09:43;;;;;;;4.43;2.07;;;3.40;99.90;;;;;;5051548;28;20349;-70
2023/12/22 03:12:09;;;;;;;26.20;2.93;;;3.30;99.90;;;;;;5052450;28;20736;-67
2023/12/22 03:14:36;;;;;;;9.23;2.70;;;3.20;99.90;;;;;;5055278;28;20401;-75
2023/12/22 03:17:03;;;;;;;13.57;3.07;;;3.10;99.90;;;;;;5055741;28;20496;-73
2023/12/22 03:19:29;;;;;;;6.07;2.77;;;3.10;99.90;;;;;;5056223;28;20448;-73
2023/12/22 03:21:54;;;;;;;11.97;2.80;;;3.00;99.90;;;;;;5054207;28;20479;-73
2023/12/22 03:24:22;;;;;;;3.20;2.47;;;3.00;99.90;;;;;;5056417;28;20397;-67
2023/12/22 03:26:48;;;;;;;10.30;2.70;;;3.00;99.90;;;;;;5055063;28;20424;-73
2023/12/22 03:29:14;;;;;;;2.77;2.30;;;3.10;99.90;;;;;;5056126;28;20873;-69
2023/12/22 03:31:40;;;;;;;4.87;2.37;;;3.10;99.90;;;;;;5054931;28;20416;-75
2023/12/22 03:34:06;;;;;;;6.00;2.87;;;3.00;99.90;;;;;;5055819;28;20168;-75
2023/12/22 03:36:32;;;;;;;16.30;3.83;;;3.10;99.90;;;;;;5054774;28;20228;-70
2023/12/22 03:38:57;;;;;;;10.63;3.13;;;3.20;99.90;;;;;;5055534;28;20471;-74
2023/12/22 03:41:23;;;;;;;4.40;2.70;;;3.10;99.90;;;;;;5054393;28;20202;-68
2023/12/22 03:43:49;;;;;;;7.97;3.07;;;3.20;99.90;;;;;;5055523;28;20170;-68
2023/12/22 03:46:14;;;;;;;14.80;4.07;;;3.20;99.90;;;;;;5054926;28;20163;-72
2023/12/22 03:48:40;;;;;;;6.63;3.10;;;3.10;99.90;;;;;;5055756;28;20455;-67
2023/12/22 03:51:06;;;;;;;6.87;3.43;;;3.20;99.90;;;;;;5055281;28;20532;-75
2023/12/22 03:53:31;;;;;;;7.90;3.13;;;3.20;99.90;;;;;;5055571;28;20171;-73
2023/12/22 03:55:57;;;;;;;9.77;3.07;;;3.20;99.90;;;;;;5053281;28;20201;-68
2023/12/22 03:58:23;;;;;;;10.23;3.60;;;3.20;99.90;;;;;;5055188;28;20267;-75
2023/12/22 04:00:49;;;;;;;6.00;2.70;;;3.30;99.90;;;;;;5054462;28;20632;-74
2023/12/22 04:03:14;;;;;;;15.17;3.23;;;3.30;99.90;;;;;;5055229;28;20578;-75
2023/12/22 04:05:40;;;;;;;10.00;3.50;;;3.20;99.90;;;;;;5046292;28;20179;-68
2023/12/22 04:08:06;;;;;;;5.00;3.07;;;3.30;99.90;;;;;;5055193;28;20241;-67
2023/12/22 04:10:32;;;;;;;23.17;4.37;;;3.40;99.90;;;;;;5055428;28;20167;-71
2023/12/22 04:12:57;;;;;;;9.70;3.60;;;3.30;99.90;;;;;;5054926;28;20444;-74
2023/12/22 04:15:23;;;;;;;10.93;4.53;;;3.40;99.90;;;;;;5054416;28;20643;-67
2023/12/22 04:17:49;;;;;;;12.00;4.37;;;3.30;99.90;;;;;;5053352;28;20211;-75
2023/12/22 04:20:15;;;;;;;15.07;2.70;;;3.30;99.90;;;;;;5055150;28;20420;-66
2023/12/22 04:22:41;;;;;;;12.20;3.37;;;3.30;99.90;;;;;;5054624;28;21027;-67
2023/12/22 04:25:08;;;;;;;8.47;2.83;;;3.20;99.90;;;;;;5053344;28;20433;-67
2023/12/22 04:27:34;;;;;;;11.73;4.00;;;3.30;99.90;;;;;;5054537;28;20190;-73
2023/12/22 04:30:00;;;;;;;6.90;3.27;;;3.20;99.90;;;;;;5054973;28;20460;-68
2023/12/22 04:32:26;;;;;;;8.80;4.20;;;3.30;99.90;;;;;;5054565;28;20417;-70
2023/12/22 04:34:52;;;;;;;9.00;3.57;;;3.30;99.90;;;;;;5054331;28;20947;-73
2023/12/22 04:37:18;;;;;;;8.83;3.70;;;3.30;99.90;;;;;;5054458;28;20195;-71
2023/12/22 04:39:43;;;;;;;7.73;3.77;;;3.50;99.90;;;;;;5054067;28;20182;-70
2023/12/22 04:42:09;;;;;;;9.93;3.60;;;3.50;99.90;;;;;;5054596;28;20195;-69
2023/12/22 04:44:35;;;;;;;12.57;3.67;;;3.50;99.90;;;;;;5053637;28;20171;-67
2023/12/22 04:47:01;;;;;;;15.00;3.87;;;3.60;99.90;;;;;;5054568;28;20177;-67
2023/12/22 04:49:26;;;;;;;15.50;3.87;;;3.50;99.90;;;;;;5054582;28;20421;-74
2023/12/22 04:51:52;;;;;;;9.07;2.73;;;3.50;99.90;;;;;;5053284;28;20186;-73
2023/12/22 04:54:18;;;;;;;10.40;3.23;;;3.30;99.90;;;;;;5053180;28;20183;-72
2023/12/22 04:56:43;;;;;;;7.93;3.53;;;3.30;99.90;;;;;;5053426;28;20198;-67
2023/12/22 04:59:09;;;;;;;12.43;3.77;;;3.30;99.90;;;;;;5053091;28;20203;-66
2023/12/22 05:01:35;;;;;;;7.83;3.03;;;3.30;99.90;;;;;;5054357;28;20678;-74
2023/12/22 05:04:01;;;;;;;9.30;2.97;;;3.10;99.90;;;;;;5054156;28;20244;-72
2023/12/22 05:06:31;;;;;;;11.33;3.27;;;3.30;99.90;;;;;;5052818;28;20185;-67
2023/12/22 05:08:56;;;;;;;5.00;3.30;;;3.30;99.90;;;;;;5052308;28;20425;-68
2023/12/22 05:11:22;;;;;;;13.77;4.00;;;3.20;99.90;;;;;;5054203;28;20874;-68
2023/12/22 05:13:48;;;;;;;13.20;4.10;;;3.20;99.90;;;;;;5053639;28;20266;-67
2023/12/22 05:16:14;;;;;;;12.97;4.00;;;3.30;99.90;;;;;;5053244;28;20492;-67
2023/12/22 05:18:41;;;;;;;11.80;3.80;;;3.30;99.90;;;;;;5052597;28;20319;-70
2023/12/22 05:21:06;;;;;;;8.65;3.75;;;3.30;99.90;;;;;;5052366;28;20541;-74
2023/12/22 05:23:32;;;;;;;13.77;3.97;;;3.30;94.30;;;;;;5053941;28;20422;-72
2023/12/22 05:25:58;;;;;;;10.00;3.80;;;3.30;90.10;;;;;;5052800;28;20214;-74
2023/12/22 05:28:24;;;;;;;18.87;5.90;;;3.40;90.10;;;;;;5052556;28;20187;-75
2023/12/22 05:30:50;;;;;;;9.57;4.70;;;3.50;84.80;;;;;;5053307;28;20175;-74
2023/12/22 05:33:15;;;;;;;13.90;5.50;;;3.50;76.30;;;;;;5053929;28;20421;-71
2023/12/22 05:35:41;;;;;;;13.27;4.73;;;3.40;64.60;;;;;;5052881;28;20261;-72
2023/12/22 05:38:07;;;;;;;18.40;5.10;;;3.40;56.80;;;;;;5052257;28;20198;-72
2023/12/22 05:40:32;;;;;;;24.40;4.30;;;3.40;43.10;;;;;;5053188;28;20175;-72
2023/12/22 05:42:58;;;;;;;7.80;3.00;;;3.40;34.10;;;;;;5053296;28;20690;-75
2023/12/22 05:45:24;;;;;;;19.63;4.50;;;3.50;27.80;;;;;;5052604;28;20423;-71
2023/12/22 05:47:50;;;;;;;26.70;5.27;;;3.60;17.60;;;;;;5053447;28;20232;-75
2023/12/22 05:50:17;;;;;;;11.40;3.73;;;3.60;3.30;;;;;;5052991;28;20406;-70
2023/12/22 05:52:44;;;;;;;17.57;4.83;;;3.60;1.00;;;;;;5053247;28;20798;-67
2023/12/22 05:55:10;;;;;;;22.87;7.10;;;3.60;1.00;;;;;;5051183;28;20774;-65
2023/12/22 05:57:36;;;;;;;18.50;4.07;;;3.70;1.00;;;;;;5050072;28;20464;-74
2023/12/22 06:00:04;;;;;;;15.10;3.97;;;3.80;1.00;;;;;;5042816;28;20171;-70
2023/12/22 06:02:30;;;;;;;12.50;4.77;;;3.80;1.00;;;;;;5053325;28;20199;-73
2023/12/22 06:04:56;;;;;;;8.70;4.47;;;3.90;1.00;;;;;;5050663;28;20815;-69
2023/12/22 06:07:21;;;;;;;21.37;4.07;;;3.90;1.00;;;;;;5051741;28;20282;-74
2023/12/22 06:09:47;;;;;;;18.00;5.00;;;4.00;1.00;;;;;;5051697;28;20179;-69
2023/12/22 06:12:12;;;;;;;14.27;4.77;;;4.00;1.00;;;;;;5053178;28;20175;-73
2023/12/22 06:14:38;;;;;;;4.63;2.37;;;4.10;1.00;;;;;;5052143;28;20167;-71
2023/12/22 06:17:04;;;;;;;15.43;4.30;;;4.00;1.00;;;;;;5052543;28;20171;-66
2023/12/22 06:19:30;;;;;;;14.40;4.63;;;4.00;1.00;;;;;;5052771;28;20171;-74
2023/12/22 06:21:57;;;;;;;11.97;4.07;;;4.00;1.00;;;;;;5052991;28;20218;-74
2023/12/22 06:24:23;;;;;;;14.13;5.20;;;3.90;1.00;;;;;;5052409;28;20402;-74
2023/12/22 06:26:49;;;;;;;12.83;4.33;;;3.90;1.00;;;;;;5050639;28;20821;-74
2023/12/22 06:29:15;;;;;;;9.40;4.10;;;4.00;1.00;;;;;;5051454;28;20413;-74
2023/12/22 06:31:41;;;;;;;10.90;4.17;;;4.00;1.00;;;;;;5053066;28;20163;-68
2023/12/22 06:34:07;;;;;;;11.83;3.60;;;4.00;1.00;;;;;;5052719;28;20413;-76
2023/12/22 06:36:33;;;;;;;3.57;2.87;;;4.00;1.00;;;;;;5051649;28;20163;-75
2023/12/22 06:38:58;;;;;;;11.00;4.00;;;4.00;1.00;;;;;;5052267;28;20451;-71
2023/12/22 06:41:25;;;;;;;9.10;3.83;;;4.00;1.00;;;;;;5051354;28;20174;-76
2023/12/22 06:43:51;;;;;;;13.10;3.80;;;4.00;1.00;;;;;;5052565;28;20203;-72
2023/12/22 06:46:18;;;;;;;9.40;4.40;;;4.00;1.00;;;;;;5051513;28;20405;-72
2023/12/22 06:48:45;;;;;;;4.27;3.30;;;3.90;1.00;;;;;;5057096;28;20449;-68
2023/12/22 06:51:30;;;;;;;10.23;3.60;;;4.00;1.00;;;;;;5059107;28;20439;-75
2023/12/22 06:53:57;;;;;;;11.10;2.97;;;3.90;1.00;;;;;;5058854;28;20401;-67
2023/12/22 06:56:28;;;;;;;5.70;2.60;;;3.90;1.00;;;;;;5057374;28;20898;-74
2023/12/22 06:58:57;;;;;;;4.83;2.83;;;3.80;1.00;;;;;;5059282;28;20425;-74
2023/12/22 07:01:25;;;;;;;6.77;3.43;;;3.80;1.00;;;;;;5038918;28;20406;-75
2023/12/22 07:03:51;;;;;;;5.60;2.70;;;3.70;1.00;;;;;;5038941;28;20452;-67
2023/12/22 07:06:21;;;;;;;5.33;3.10;;;3.70;1.00;;;;;;5054059;28;20409;-70
2023/12/22 07:09:17;;;;;;;5.43;4.03;;;3.60;1.00;;;;;;5057019;28;20879;-71
2023/12/22 07:11:45;;;;;;;5.00;3.20;;;3.70;1.00;;;;;;5037678;28;20429;-67
2023/12/22 07:14:11;;;;;;;14.73;4.10;;;3.60;1.00;;;;;;5057617;28;20816;-71
2023/12/22 07:16:37;;;;;;;5.87;3.03;;;3.60;1.00;;;;;;5057141;28;20535;-66
2023/12/22 07:19:04;;;;;;;10.13;2.80;;;3.50;1.00;;;;;;5058738;28;20470;-70
2023/12/22 07:21:29;;;;;;;3.83;2.87;;;3.50;1.00;;;;;;5058330;28;20421;-69
2023/12/22 07:23:55;;;;;;;5.13;2.53;;;3.60;1.00;;;;;;5058616;28;20424;-69
2023/12/22 07:26:21;;;;;;;3.70;3.37;;;3.60;1.00;;;;;;5058017;28;20178;-75
2023/12/22 07:28:47;;;;;;;9.37;2.90;;;3.60;1.00;;;;;;5058769;28;20659;-72
2023/12/22 07:31:14;;;;;;;12.60;3.67;;;3.60;1.00;;;;;;5058688;28;20466;-67
2023/12/22 07:33:41;;;;;;;7.03;3.33;;;3.60;1.00;;;;;;5058941;28;20440;-73
2023/12/22 07:36:07;;;;;;;11.30;3.80;;;3.70;1.00;;;;;;5058068;28;20414;-68
2023/12/22 07:38:33;;;;;;;13.30;2.60;;;3.80;1.00;;;;;;5058356;28;20195;-67
2023/12/22 07:40:58;;;;;;;12.07;3.20;;;3.90;1.00;;;;;;5057392;28;20419;-68
2023/12/22 07:43:25;;;;;;;7.47;3.70;;;3.70;3.30;;;;;;5057622;28;20202;-72
2023/12/22 07:45:51;;;;;;;8.70;3.23;;;3.60;61.60;;;;;;5057779;28;20173;-68
2023/12/22 07:48:17;;;;;;;6.00;1.90;;;3.30;90.10;;;;;;5058504;28;20421;-71
2023/12/22 07:50:43;;;;;;;12.13;3.23;;;3.20;99.90;;;;;;5058401;28;20512;-70
2023/12/22 07:53:09;;;;;;;9.50;3.40;;;2.90;99.90;;;;;;5058332;28;20409;-73
2023/12/22 07:55:35;;;;;;;6.23;2.87;;;2.80;99.90;;;;;;5056715;28;20478;-73
2023/12/22 07:58:01;;;;;;;6.77;3.20;;;2.80;99.90;;;;;;5058144;28;20221;-73
2023/12/22 08:00:27;;;;;;;9.90;3.37;;;2.70;99.90;;;;;;5049209;28;20464;-67
2023/12/22 08:02:53;;;;;;;8.20;3.70;;;2.60;99.90;;;;;;5054041;28;20202;-66
2023/12/22 08:05:19;;;;;;;12.40;4.30;;;2.70;99.90;;;;;;5054090;28;20413;-70
2023/12/22 08:07:45;;;;;;;7.17;3.30;;;2.70;99.90;;;;;;5055051;28;20278;-72
2023/12/22 08:10:10;;;;;;;7.70;3.10;;;2.70;99.90;;;;;;5055424;28;20171;-67
2023/12/22 08:12:36;;;;;;;9.53;3.93;;;2.80;99.90;;;;;;5053898;28;20776;-71
2023/12/22 08:15:02;;;;;;;8.10;3.97;;;2.90;99.90;;;;;;5052922;28;20175;-70
2023/12/22 08:17:28;;;;;;;3.77;3.23;;;3.00;99.90;;;;;;5055111;28;20444;-74
2023/12/22 08:19:54;;;;;;;10.00;3.57;;;2.90;99.90;;;;;;5054886;28;20163;-73
2023/12/22 08:22:20;;;;;;;5.00;2.37;;;3.10;99.70;;;;;;5054556;28;20483;-71
2023/12/22 08:24:45;;;;;;;6.07;2.80;;;3.10;90.40;;;;;;5054059;28;20195;-72
2023/12/22 08:27:11;;;;;;;6.30;3.53;;;3.20;90.10;;;;;;5055099;28;20218;-73
2023/12/22 08:29:37;;;;;;;6.67;3.37;;;3.20;90.10;;;;;;5054941;28;20171;-74
2023/12/22 08:32:03;;;;;;;5.00;2.50;;;3.20;81.40;;;;;;5053298;28;20340;-69
2023/12/22 08:34:28;;;;;;;10.10;3.00;;;3.30;73.60;;;;;;5054345;28;20258;-73
2023/12/22 08:36:54;;;;;;;6.63;2.90;;;3.40;50.00;;;;;;5053736;28;20413;-70
2023/12/22 08:39:20;;;;;;;13.47;3.57;;;3.50;34.50;;;;;;5054563;28;20181;-67
2023/12/22 08:41:47;;;;;;;4.60;2.43;;;3.50;16.80;;;;;;5054401;28;20207;-74
2023/12/22 08:44:14;;;;;;;8.57;3.40;;;3.60;8.60;;;;;;5053356;28;20583;-66
2023/12/22 08:46:40;;;;;;;7.43;3.50;;;3.60;10.60;;;;;;5053727;28;20439;-67
2023/12/22 08:49:07;;;;;;;5.00;3.00;;;3.40;8.50;;;;;;5054703;28;20452;-72
2023/12/22 08:51:33;;;;;;;15.17;4.00;;;3.60;9.90;;;;;;5054620;28;20409;-74
2023/12/22 08:53:59;;;;;;;16.60;4.70;;;3.60;7.80;;;;;;5053916;28;20413;-69
2023/12/22 08:56:26;;;;;;;3.10;2.63;;;3.60;8.00;;;;;;5053553;28;20408;-73
2023/12/22 08:58:54;;;;;;;10.17;3.10;;;3.70;3.50;;;;;;5054513;28;20486;-67
2023/12/22 09:01:21;;;;;;;14.20;3.50;;;3.70;1.10;;;;;;5053777;28;20414;-73
2023/12/22 09:03:48;;;;;;;5.37;2.23;;;3.60;2.70;;;;;;5054331;28;20424;-67
2023/12/22 09:06:22;;;;;;;7.17;2.63;;;3.70;1.00;;;;;;5052136;28;20413;-72
2023/12/22 09:08:48;;;;;;;9.37;3.43;;;3.80;1.00;;;;;;5052854;28;20440;-71
2023/12/22 09:11:17;;;;;;;4.67;3.00;;;3.80;1.00;;;;;;5053504;28;20766;-74
2023/12/22 09:13:43;;;;;;;17.40;3.80;;;3.80;1.00;;;;;;5052423;28;20909;-67
2023/12/22 09:16:10;;;;;;;9.63;3.70;;;3.90;1.00;;;;;;5053265;28;20815;-73
2023/12/22 09:18:36;;;;;;;11.80;3.57;;;3.90;1.00;;;;;;5053746;28;20461;-66
2023/12/22 09:21:02;;;;;;;11.47;2.87;;;3.90;1.00;;;;;;5054058;28;20483;-71
2023/12/22 09:23:31;;;;;;;18.57;3.43;;;3.80;1.00;;;;;;5053707;28;20887;-73
2023/12/22 09:25:58;;;;;;;8.50;3.00;;;3.80;1.00;;;;;;5052878;28;20460;-67
2023/12/22 09:28:24;;;;;;;7.70;2.73;;;3.90;1.00;;;;;;5053642;28;20432;-73
2023/12/22 09:30:49;;;;;;;8.50;3.67;;;3.90;1.00;;;;;;5053452;28;20492;-67
2023/12/22 09:33:15;;;;;;;12.17;3.27;;;4.00;1.00;;;;;;5053810;28;20183;-70
2023/12/22 09:35:41;;;;;;;4.90;3.33;;;4.10;1.00;;;;;;5052991;28;20182;-66
2023/12/22 09:38:14;;;;;;;2.37;2.17;;;4.00;1.00;;;;;;5053045;28;20610;-71
2023/12/22 09:40:41;;;;;;;6.77;2.47;;;4.10;1.00;;;;;;5052246;28;20421;-67
2023/12/22 09:43:08;;;;;;;8.23;3.20;;;4.10;1.00;;;;;;5053413;28;20468;-69
2023/12/22 09:45:34;;;;;;;8.37;3.20;;;4.20;1.00;;;;;;5052830;28;20397;-67
2023/12/22 09:48:01;;;;;;;5.73;2.43;;;4.20;1.00;;;;;;5053356;28;20456;-66
2023/12/22 09:50:28;;;;;;;4.57;2.63;;;4.40;1.00;;;;;;5052829;28;20903;-73
2023/12/22 09:52:54;;;;;;;8.93;3.60;;;4.40;1.00;;;;;;5053193;28;20478;-71
2023/12/22 09:55:23;;;;;;;5.40;3.13;;;4.40;1.00;;;;;;5052115;28;20946;-65
2023/12/22 09:57:50;;;;;;;9.73;3.37;;;4.40;1.00;;;;;;5052922;28;20206;-67
2023/12/22 10:00:17;;;;;;;6.10;3.40;;;4.50;1.00;;;;;;5047694;28;20465;-65
2023/12/22 10:02:45;;;;;;;3.87;2.40;;;4.50;1.00;;;;;;5052273;28;20453;-71
2023/12/22 10:05:13;;;;;;;7.30;4.77;;;4.30;1.00;;;;;;5052194;28;20502;-71
2023/12/22 10:07:40;;;;;;;4.03;2.00;;;4.40;1.00;;;;;;5052906;28;20426;-65
2023/12/22 10:10:07;;;;;;;8.60;2.77;;;4.40;1.00;;;;;;5036786;28;20430;-66
2023/12/22 10:12:34;;;;;;;10.30;3.67;;;4.30;1.00;;;;;;5037735;28;20447;-65
2023/12/22 10:15:02;;;;;;;5.27;2.73;;;4.40;1.00;;;;;;5048806;28;20533;-71
2023/12/22 10:17:30;;;;;;;2.90;2.20;;;4.40;1.00;;;;;;5036440;28;20454;-66
2023/12/22 10:19:55;;;;;;;3.03;2.70;;;4.50;1.00;;;;;;5051235;28;20436;-72
2023/12/22 10:22:23;;;;;;;4.57;2.43;;;4.40;1.00;;;;;;5050919;28;20452;-74
2023/12/22 10:24:52;;;;;;;6.53;3.67;;;4.50;1.00;;;;;;5035543;28;20272;-72
2023/12/22 10:27:27;;;;;;;10.43;2.67;;;4.60;1.00;;;;;;5051142;28;20849;-67
2023/12/22 10:29:57;;;;;;;5.27;2.37;;;4.60;1.00;;;;;;5051005;28;20794;-65
2023/12/22 10:32:23;;;;;;;5.60;2.67;;;4.60;1.00;;;;;;5034806;28;20438;-66
2023/12/22 10:34:51;;;;;;;6.73;3.17;;;4.70;1.00;;;;;;5041912;28;20442;-66
2023/12/22 10:37:17;;;;;;;12.83;3.50;;;4.60;1.00;;;;;;5054669;28;20968;-68
2023/12/22 10:39:43;;;;;;;12.97;2.47;;;4.40;1.00;;;;;;5073161;28;20418;-64
2023/12/22 10:42:09;;;;;;;6.47;3.10;;;4.50;1.00;;;;;;5062037;28;20453;-72
2023/12/22 10:44:39;;;;;;;6.80;3.77;;;4.50;1.00;;;;;;5049289;28;20421;-68
2023/12/22 10:47:06;;;;;;;6.67;2.87;;;4.40;1.00;;;;;;5072890;28;20524;-69
2023/12/22 10:49:33;;;;;;;7.50;2.90;;;4.30;1.00;;;;;;5073051;28;20882;-67
2023/12/22 10:52:00;;;;;;;4.97;2.70;;;4.30;1.00;;;;;;5066819;28;20413;-69
2023/12/22 10:54:25;;;;;;;4.17;2.70;;;4.20;1.00;;;;;;5063010;28;20942;-64
2023/12/22 10:56:52;;;;;;;11.60;3.00;;;4.20;1.00;;;;;;5050637;28;20433;-64
2023/12/22 10:59:23;;;;;;;4.60;2.90;;;4.10;1.00;;;;;;5051708;28;20174;-70
2023/12/22 11:01:51;;;;;;;3.83;2.57;;;4.10;1.00;;;;;;5034113;28;20545;-74
2023/12/22 11:04:20;;;;;;;9.80;3.70;;;4.10;1.00;;;;;;5032771;28;20493;-73
2023/12/22 11:06:49;;;;;;;8.20;3.50;;;4.10;1.00;;;;;;5050659;28;20420;-71
2023/12/22 11:09:17;;;;;;;3.63;3.00;;;4.20;1.00;;;;;;5036645;28;20779;-73
2023/12/22 11:11:44;;;;;;;13.33;3.07;;;4.20;1.00;;;;;;5051257;28;20830;-67
2023/12/22 11:14:11;;;;;;;4.90;2.10;;;4.30;1.00;;;;;;5050619;28;20494;-69
2023/12/22 11:16:36;;;;;;;5.03;2.20;;;4.30;1.00;;;;;;5030421;28;20425;-73
2023/12/22 11:19:03;;;;;;;5.10;2.43;;;4.30;1.00;;;;;;5044168;28;20434;-72
2023/12/22 11:21:30;;;;;;;2.30;2.10;;;4.30;1.00;;;;;;5052252;28;20183;-66
2023/12/22 11:23:59;;;;;;;9.73;2.57;;;4.30;1.00;;;;;;5051290;28;20437;-74
2023/12/22 11:26:26;;;;;;;5.10;2.50;;;4.40;1.00;;;;;;5043768;28;20915;-74
2023/12/22 11:28:52;;;;;;;3.90;2.60;;;4.40;1.00;;;;;;5047062;28;20536;-69
2023/12/22 11:31:18;;;;;;;6.93;3.03;;;4.40;1.00;;;;;;5046246;28;20425;-71
2023/12/22 11:33:49;;;;;;;6.30;2.33;;;4.30;1.00;;;;;;5052915;28;20882;-65
2023/12/22 11:36:17;;;;;;;5.40;2.70;;;4.40;1.00;;;;;;5050920;28;20427;-71
2023/12/22 11:38:47;;;;;;;7.83;2.87;;;4.50;1.00;;;;;;5041901;28;20455;-71
2023/12/22 11:41:27;;;;;;;4.80;4.23;;;4.40;1.00;;;;;;5048078;28;20430;-72
2023/12/22 11:43:54;;;;;;;4.67;2.40;;;4.50;1.00;;;;;;5047177;28;20798;-68
2023/12/22 11:46:20;;;;;;;4.30;2.13;;;4.50;1.00;;;;;;5034577;28;20415;-65
2023/12/22 11:48:49;;;;;;;8.73;3.83;;;4.60;1.00;;;;;;5036256;28;20481;-65
2023/12/22 11:51:16;;;;;;;9.77;3.80;;;4.50;1.00;;;;;;5034413;28;20165;-64
2023/12/22 11:53:43;;;;;;;4.37;3.97;;;4.60;1.00;;;;;;5038381;28;20410;-65
2023/12/22 11:56:10;;;;;;;3.93;3.63;;;4.60;1.00;;;;;;5043669;28;20952;-65
2023/12/22 11:58:50;;;;;;;8.17;3.80;;;4.50;1.00;;;;;;5049628;28;21013;-70
2023/12/22 12:01:17;;;;;;;9.50;3.80;;;4.50;1.00;;;;;;5037821;28;20955;-69
2023/12/22 12:03:55;;;;;;;3.30;3.00;;;4.50;1.00;;;;;;5035812;28;20451;-64
2023/12/22 12:06:27;;;;;;;7.30;3.20;;;4.50;1.00;;;;;;5033716;28;20966;-64
2023/12/22 12:08:54;;;;;;;8.77;3.10;;;4.50;1.00;;;;;;5050382;28;20477;-70
2023/12/22 12:11:20;;;;;;;8.27;3.97;;;4.60;1.00;;;;;;5053838;28;20406;-72
2023/12/22 12:13:47;;;;;;;3.37;3.03;;;4.60;1.00;;;;;;5055045;28;20946;-65
2023/12/22 12:16:14;;;;;;;11.23;4.20;;;4.50;1.00;;;;;;5041810;28;20953;-70
2023/12/22 12:18:41;;;;;;;9.30;2.83;;;4.60;1.00;;;;;;5047303;28;20559;-69
2023/12/22 12:21:09;;;;;;;6.50;2.90;;;4.70;1.00;;;;;;5055526;28;20410;-73
2023/12/22 12:23:34;;;;;;;8.60;3.13;;;4.90;1.00;;;;;;5055214;28;20456;-65
2023/12/22 12:26:00;;;;;;;3.57;2.27;;;5.20;1.00;;;;;;5054480;28;20421;-72
2023/12/22 12:28:31;;;;;;;12.57;3.37;;;5.40;1.00;;;;;;5054848;28;20259;-68
2023/12/22 12:31:03;;;;;;;7.70;3.13;;;5.50;1.00;;;;;;5055122;28;20642;-65
2023/12/22 12:33:30;;;;;;;6.70;2.63;;;5.50;1.00;;;;;;5055252;28;20413;-67
2023/12/22 12:36:04;;;;;;;4.50;2.60;;;5.30;1.00;;;;;;5053959;28;20498;-65
2023/12/22 12:38:54;;;;;;;7.37;2.90;;;5.30;1.00;;;;;;5054687;28;20884;-73
2023/12/22 12:41:30;;;;;;;5.10;3.23;;;5.20;1.00;;;;;;5055132;28;20396;-65
2023/12/22 12:43:57;;;;;;;11.50;2.70;;;5.20;1.00;;;;;;5055079;28;20407;-72
2023/12/22 12:46:23;;;;;;;10.47;4.20;;;5.10;1.00;;;;;;5038140;28;20455;-65
2023/12/22 12:49:02;;;;;;;12.80;3.23;;;5.10;1.00;;;;;;5043222;28;21002;-73
2023/12/22 12:51:27;;;;;;;6.80;3.20;;;5.20;1.00;;;;;;5053406;28;20179;-65
2023/12/22 12:53:53;;;;;;;5.53;2.20;;;5.00;1.00;;;;;;5045026;28;22335;-72
2023/12/22 12:56:19;;;;;;;5.07;2.43;;;5.00;1.00;;;;;;5052022;28;20203;-71